sensor_id;sensor_type;location;lat;lon;timestamp;pressure;altitude;pressure_sealevel;temperature;humidity
63500;BME280;49654;51.142;14.924;2022-10-16T00:01:43;98993.28;;;17.21;82.36
63500;BME280;49654;51.142;14.924;2022-10-16T00:04:10;99008.69;;;17.17;82.82
63500;BME280;49654;51.142;14.924;2022-10-16T00:06:39;99011.47;;;17.22;82.59
63500;BME280;49654;51.142;14.924;2022-10-16T00:09:06;99007.72;;;17.12;82.70
63500;BME280;49654;51.142;14.924;2022-10-16T00:11:35;99006.78;;;17.24;82.26
63500;BME280;49654;51.142;14.924;2022-10-16T00:14:05;99005.25;;;17.35;81.77
63500;BME280;49654;51.142;14.924;2022-10-16T00:16:33;99018.22;;;17.30;81.36
63500;BME280;49654;51.142;14.924;2022-10-16T00:19:01;99021.72;;;17.24;81.93
63500;BME280;49654;51.142;14.924;2022-10-16T00:21:29;99021.28;;;17.27;81.80
63500;BME280;49654;51.142;14.924;2022-10-16T00:24:00;99013.19;;;17.28;81.57
63500;BME280;49654;51.142;14.924;2022-10-16T00:26:29;99021.06;;;17.28;81.61
63500;BME280;49654;51.142;14.924;2022-10-16T00:28:56;98972.13;;;16.86;82.63
63500;BME280;49654;51.142;14.924;2022-10-16T00:31:24;99012.41;;;17.10;82.56
63500;BME280;49654;51.142;14.924;2022-10-16T00:33:51;98955.53;;;16.73;82.10
63500;BME280;49654;51.142;14.924;2022-10-16T00:36:20;99029.53;;;17.12;82.22
63500;BME280;49654;51.142;14.924;2022-10-16T00:38:50;98998.88;;;16.76;83.20
63500;BME280;49654;51.142;14.924;2022-10-16T00:41:21;99019.78;;;17.01;82.94
63500;BME280;49654;51.142;14.924;2022-10-16T00:43:51;99024.00;;;17.02;82.87
63500;BME280;49654;51.142;14.924;2022-10-16T00:46:21;99026.25;;;16.98;83.05
63500;BME280;49654;51.142;14.924;2022-10-16T00:48:51;99024.91;;;16.96;83.17
63500;BME280;49654;51.142;14.924;2022-10-16T00:51:25;99028.09;;;16.98;83.11
63500;BME280;49654;51.142;14.924;2022-10-16T00:53:54;99035.94;;;16.98;82.73
63500;BME280;49654;51.142;14.924;2022-10-16T00:56:23;99036.19;;;16.96;83.07
63500;BME280;49654;51.142;14.924;2022-10-16T00:58:50;99020.34;;;17.03;82.48
63500;BME280;49654;51.142;14.924;2022-10-16T01:01:17;99031.22;;;17.07;82.33
63500;BME280;49654;51.142;14.924;2022-10-16T01:03:44;99015.13;;;16.85;82.70
63500;BME280;49654;51.142;14.924;2022-10-16T01:06:22;99043.09;;;16.91;83.07
63500;BME280;49654;51.142;14.924;2022-10-16T01:09:02;99034.50;;;16.84;83.18
63500;BME280;49654;51.142;14.924;2022-10-16T01:11:38;99035.16;;;16.79;83.31
63500;BME280;49654;51.142;14.924;2022-10-16T01:14:11;99044.47;;;16.93;83.12
63500;BME280;49654;51.142;14.924;2022-10-16T01:16:45;99050.53;;;16.94;83.08
63500;BME280;49654;51.142;14.924;2022-10-16T01:19:20;99037.97;;;16.77;83.27
63500;BME280;49654;51.142;14.924;2022-10-16T01:21:53;99059.59;;;16.73;83.57
63500;BME280;49654;51.142;14.924;2022-10-16T01:24:31;99051.94;;;16.71;83.81
63500;BME280;49654;51.142;14.924;2022-10-16T01:27:08;99060.00;;;16.70;84.06
63500;BME280;49654;51.142;14.924;2022-10-16T01:29:40;99059.19;;;16.69;83.73
63500;BME280;49654;51.142;14.924;2022-10-16T01:32:15;99063.25;;;16.47;84.69
63500;BME280;49654;51.142;14.924;2022-10-16T01:34:48;99058.22;;;16.45;85.01
63500;BME280;49654;51.142;14.924;2022-10-16T01:37:21;99062.28;;;16.41;85.30
63500;BME280;49654;51.142;14.924;2022-10-16T01:39:50;99060.50;;;16.35;85.07
63500;BME280;49654;51.142;14.924;2022-10-16T01:42:26;99056.41;;;16.46;85.39
63500;BME280;49654;51.142;14.924;2022-10-16T01:44:56;99065.34;;;16.38;85.44
63500;BME280;49654;51.142;14.924;2022-10-16T01:47:25;99060.19;;;16.50;84.83
63500;BME280;49654;51.142;14.924;2022-10-16T01:49:53;99055.00;;;16.43;84.75
63500;BME280;49654;51.142;14.924;2022-10-16T01:52:26;99048.13;;;16.49;84.96
63500;BME280;49654;51.142;14.924;2022-10-16T01:54:56;99055.00;;;16.43;85.18
63500;BME280;49654;51.142;14.924;2022-10-16T01:57:26;99053.38;;;16.49;85.01
63500;BME280;49654;51.142;14.924;2022-10-16T01:59:58;99049.72;;;16.50;84.90
63500;BME280;49654;51.142;14.924;2022-10-16T02:02:30;99031.22;;;16.45;84.41
63500;BME280;49654;51.142;14.924;2022-10-16T02:05:03;99009.50;;;16.38;84.36
63500;BME280;49654;51.142;14.924;2022-10-16T02:07:31;99027.09;;;16.31;85.04
63500;BME280;49654;51.142;14.924;2022-10-16T02:09:59;99034.56;;;16.27;85.22
63500;BME280;49654;51.142;14.924;2022-10-16T02:12:31;99055.91;;;16.31;85.60
63500;BME280;49654;51.142;14.924;2022-10-16T02:14:58;99060.44;;;16.23;85.61
63500;BME280;49654;51.142;14.924;2022-10-16T02:17:25;99074.91;;;16.26;86.15
63500;BME280;49654;51.142;14.924;2022-10-16T02:19:54;99068.19;;;16.37;85.94
63500;BME280;49654;51.142;14.924;2022-10-16T02:22:26;99075.88;;;16.32;85.64
63500;BME280;49654;51.142;14.924;2022-10-16T02:24:56;99082.56;;;16.27;85.87
63500;BME280;49654;51.142;14.924;2022-10-16T02:27:29;99081.69;;;16.34;85.59
63500;BME280;49654;51.142;14.924;2022-10-16T02:30:06;99081.31;;;16.30;86.22
63500;BME280;49654;51.142;14.924;2022-10-16T02:32:38;99088.22;;;16.24;86.19
63500;BME280;49654;51.142;14.924;2022-10-16T02:35:07;99091.41;;;16.26;86.15
63500;BME280;49654;51.142;14.924;2022-10-16T02:37:35;99083.53;;;16.33;85.69
63500;BME280;49654;51.142;14.924;2022-10-16T02:40:04;99087.25;;;16.44;85.29
63500;BME280;49654;51.142;14.924;2022-10-16T02:42:36;99089.31;;;16.42;85.14
63500;BME280;49654;51.142;14.924;2022-10-16T02:45:04;99093.09;;;16.46;85.24
63500;BME280;49654;51.142;14.924;2022-10-16T02:47:31;99057.53;;;16.32;84.89
63500;BME280;49654;51.142;14.924;2022-10-16T02:49:58;99085.16;;;16.52;85.04
63500;BME280;49654;51.142;14.924;2022-10-16T02:52:26;99085.88;;;16.66;84.25
63500;BME280;49654;51.142;14.924;2022-10-16T02:54:53;99087.13;;;16.57;84.57
63500;BME280;49654;51.142;14.924;2022-10-16T02:57:20;99068.56;;;16.40;84.62
63500;BME280;49654;51.142;14.924;2022-10-16T02:59:48;99096.19;;;16.61;84.12
63500;BME280;49654;51.142;14.924;2022-10-16T03:02:15;99101.16;;;16.69;83.55
63500;BME280;49654;51.142;14.924;2022-10-16T03:04:42;99095.59;;;16.59;83.97
63500;BME280;49654;51.142;14.924;2022-10-16T03:07:09;99084.38;;;16.52;83.97
63500;BME280;49654;51.142;14.924;2022-10-16T03:09:36;99086.25;;;16.45;84.24
63500;BME280;49654;51.142;14.924;2022-10-16T03:12:04;99076.22;;;16.35;84.61
63500;BME280;49654;51.142;14.924;2022-10-16T03:14:31;99083.63;;;16.45;84.47
63500;BME280;49654;51.142;14.924;2022-10-16T03:16:59;99086.16;;;16.33;84.74
63500;BME280;49654;51.142;14.924;2022-10-16T03:19:26;99086.63;;;16.23;85.44
63500;BME280;49654;51.142;14.924;2022-10-16T03:21:53;99099.66;;;16.30;85.54
63500;BME280;49654;51.142;14.924;2022-10-16T03:24:20;99101.44;;;16.36;85.65
63500;BME280;49654;51.142;14.924;2022-10-16T03:26:47;99090.91;;;16.43;84.94
63500;BME280;49654;51.142;14.924;2022-10-16T03:29:14;99104.75;;;16.50;84.66
63500;BME280;49654;51.142;14.924;2022-10-16T03:31:41;99109.66;;;16.65;84.28
63500;BME280;49654;51.142;14.924;2022-10-16T03:34:10;99108.88;;;16.64;83.80
63500;BME280;49654;51.142;14.924;2022-10-16T03:36:37;99106.41;;;16.69;83.55
63500;BME280;49654;51.142;14.924;2022-10-16T03:39:04;99098.47;;;16.58;83.94
63500;BME280;49654;51.142;14.924;2022-10-16T03:41:31;99095.38;;;16.61;83.83
63500;BME280;49654;51.142;14.924;2022-10-16T03:43:58;99103.22;;;16.67;83.77
63500;BME280;49654;51.142;14.924;2022-10-16T03:46:25;99095.25;;;16.81;83.37
63500;BME280;49654;51.142;14.924;2022-10-16T03:48:52;99098.09;;;16.79;83.01
63500;BME280;49654;51.142;14.924;2022-10-16T03:51:23;99094.72;;;16.65;82.93
63500;BME280;49654;51.142;14.924;2022-10-16T03:53:50;99095.97;;;16.63;83.04
63500;BME280;49654;51.142;14.924;2022-10-16T03:56:17;99100.06;;;16.59;83.64
63500;BME280;49654;51.142;14.924;2022-10-16T03:58:44;99120.66;;;16.55;84.15
63500;BME280;49654;51.142;14.924;2022-10-16T04:01:11;99121.50;;;16.74;83.34
63500;BME280;49654;51.142;14.924;2022-10-16T04:03:38;99112.84;;;16.73;82.68
63500;BME280;49654;51.142;14.924;2022-10-16T04:06:05;99126.06;;;16.85;82.45
63500;BME280;49654;51.142;14.924;2022-10-16T04:08:34;99129.63;;;16.91;82.28
63500;BME280;49654;51.142;14.924;2022-10-16T04:11:03;99120.03;;;16.85;82.35
63500;BME280;49654;51.142;14.924;2022-10-16T04:13:30;99137.88;;;16.94;82.02
63500;BME280;49654;51.142;14.924;2022-10-16T04:15:57;99146.16;;;16.91;82.45
63500;BME280;49654;51.142;14.924;2022-10-16T04:18:24;99115.72;;;16.65;83.14
63500;BME280;49654;51.142;14.924;2022-10-16T04:20:52;99139.47;;;16.95;82.26
63500;BME280;49654;51.142;14.924;2022-10-16T04:23:19;99154.66;;;16.93;82.62
63500;BME280;49654;51.142;14.924;2022-10-16T04:25:50;99158.28;;;16.92;82.81
63500;BME280;49654;51.142;14.924;2022-10-16T04:28:19;99105.06;;;16.60;82.81
63500;BME280;49654;51.142;14.924;2022-10-16T04:30:46;99151.38;;;16.98;82.09
63500;BME280;49654;51.142;14.924;2022-10-16T04:33:13;99151.78;;;16.95;82.55
63500;BME280;49654;51.142;14.924;2022-10-16T04:35:40;99151.38;;;16.98;82.47
63500;BME280;49654;51.142;14.924;2022-10-16T04:38:07;99146.53;;;16.95;82.31
63500;BME280;49654;51.142;14.924;2022-10-16T04:40:34;99153.56;;;17.01;82.51
63500;BME280;49654;51.142;14.924;2022-10-16T04:43:04;99134.22;;;16.95;81.83
63500;BME280;49654;51.142;14.924;2022-10-16T04:45:31;99151.31;;;17.05;81.98
63500;BME280;49654;51.142;14.924;2022-10-16T04:47:58;99159.75;;;17.07;81.87
63500;BME280;49654;51.142;14.924;2022-10-16T04:50:26;99152.41;;;16.97;81.97
63500;BME280;49654;51.142;14.924;2022-10-16T04:52:53;99120.53;;;16.68;82.52
63500;BME280;49654;51.142;14.924;2022-10-16T04:55:20;99150.47;;;16.86;82.47
63500;BME280;49654;51.142;14.924;2022-10-16T04:57:47;99143.25;;;16.81;83.03
63500;BME280;49654;51.142;14.924;2022-10-16T05:00:16;99141.00;;;16.85;82.54
63500;BME280;49654;51.142;14.924;2022-10-16T05:02:44;99138.88;;;16.75;83.07
63500;BME280;49654;51.142;14.924;2022-10-16T05:05:11;99139.44;;;16.77;82.75
63500;BME280;49654;51.142;14.924;2022-10-16T05:07:38;99148.75;;;16.73;83.39
63500;BME280;49654;51.142;14.924;2022-10-16T05:10:05;99139.81;;;16.81;83.02
63500;BME280;49654;51.142;14.924;2022-10-16T05:12:32;99143.97;;;16.63;83.45
63500;BME280;49654;51.142;14.924;2022-10-16T05:14:59;99127.63;;;16.61;83.37
63500;BME280;49654;51.142;14.924;2022-10-16T05:17:28;99133.91;;;16.60;83.98
63500;BME280;49654;51.142;14.924;2022-10-16T05:19:55;99148.03;;;16.59;83.90
63500;BME280;49654;51.142;14.924;2022-10-16T05:22:22;99148.44;;;16.56;84.28
63500;BME280;49654;51.142;14.924;2022-10-16T05:24:49;99144.66;;;16.52;84.25
63500;BME280;49654;51.142;14.924;2022-10-16T05:27:16;99148.81;;;16.35;84.96
63500;BME280;49654;51.142;14.924;2022-10-16T05:29:45;99159.34;;;16.28;85.33
63500;BME280;49654;51.142;14.924;2022-10-16T05:32:13;99150.47;;;16.29;85.41
63500;BME280;49654;51.142;14.924;2022-10-16T05:34:42;99137.47;;;16.09;85.94
63500;BME280;49654;51.142;14.924;2022-10-16T05:37:09;99158.72;;;16.33;85.56
63500;BME280;49654;51.142;14.924;2022-10-16T05:39:37;99161.66;;;16.43;85.03
63500;BME280;49654;51.142;14.924;2022-10-16T05:42:04;99165.03;;;16.50;84.41
63500;BME280;49654;51.142;14.924;2022-10-16T05:44:31;99158.94;;;16.56;84.23
63500;BME280;49654;51.142;14.924;2022-10-16T05:46:59;99158.53;;;16.59;84.04
63500;BME280;49654;51.142;14.924;2022-10-16T05:49:26;99164.56;;;16.60;83.71
63500;BME280;49654;51.142;14.924;2022-10-16T05:51:55;99161.06;;;16.66;83.18
63500;BME280;49654;51.142;14.924;2022-10-16T05:54:22;99172.66;;;16.58;83.48
63500;BME280;49654;51.142;14.924;2022-10-16T05:56:49;99165.38;;;16.60;83.45
63500;BME280;49654;51.142;14.924;2022-10-16T05:59:16;99168.22;;;16.59;83.39
63500;BME280;49654;51.142;14.924;2022-10-16T06:01:43;99172.22;;;16.61;83.38
63500;BME280;49654;51.142;14.924;2022-10-16T06:04:10;99172.22;;;16.61;83.35
63500;BME280;49654;51.142;14.924;2022-10-16T06:06:37;99129.91;;;16.26;83.46
63500;BME280;49654;51.142;14.924;2022-10-16T06:09:05;99202.88;;;16.61;83.35
63500;BME280;49654;51.142;14.924;2022-10-16T06:11:33;99187.47;;;16.39;83.61
63500;BME280;49654;51.142;14.924;2022-10-16T06:14:01;99205.31;;;16.56;83.42
63500;BME280;49654;51.142;14.924;2022-10-16T06:16:33;99209.28;;;16.65;83.06
63500;BME280;49654;51.142;14.924;2022-10-16T06:19:00;99205.41;;;16.74;82.88
63500;BME280;49654;51.142;14.924;2022-10-16T06:21:28;99205.31;;;16.87;81.97
63500;BME280;49654;51.142;14.924;2022-10-16T06:23:56;99208.13;;;16.92;81.51
63500;BME280;49654;51.142;14.924;2022-10-16T06:26:26;99202.13;;;16.85;81.50
63500;BME280;49654;51.142;14.924;2022-10-16T06:28:53;99215.94;;;16.99;81.65
63500;BME280;49654;51.142;14.924;2022-10-16T06:31:21;99158.59;;;16.77;80.73
63500;BME280;49654;51.142;14.924;2022-10-16T06:33:50;99222.34;;;17.28;80.04
63500;BME280;49654;51.142;14.924;2022-10-16T06:36:17;99214.03;;;17.31;79.58
63500;BME280;49654;51.142;14.924;2022-10-16T06:38:45;99226.50;;;17.36;79.42
63500;BME280;49654;51.142;14.924;2022-10-16T06:41:14;99227.44;;;17.23;79.72
63500;BME280;49654;51.142;14.924;2022-10-16T06:43:43;99239.16;;;17.20;79.78
63500;BME280;49654;51.142;14.924;2022-10-16T06:46:13;99248.09;;;17.38;79.58
63500;BME280;49654;51.142;14.924;2022-10-16T06:48:40;99251.16;;;17.35;79.70
63500;BME280;49654;51.142;14.924;2022-10-16T06:51:10;99247.00;;;17.45;79.27
63500;BME280;49654;51.142;14.924;2022-10-16T06:53:39;99265.84;;;17.61;78.90
63500;BME280;49654;51.142;14.924;2022-10-16T06:56:08;99268.28;;;17.56;79.29
63500;BME280;49654;51.142;14.924;2022-10-16T06:58:35;99267.88;;;17.59;79.13
63500;BME280;49654;51.142;14.924;2022-10-16T07:01:04;99219.72;;;17.03;79.69
63500;BME280;49654;51.142;14.924;2022-10-16T07:03:32;99257.41;;;17.34;79.87
63500;BME280;49654;51.142;14.924;2022-10-16T07:06:01;99267.09;;;17.33;79.83
63500;BME280;49654;51.142;14.924;2022-10-16T07:08:30;99274.44;;;17.49;79.33
63500;BME280;49654;51.142;14.924;2022-10-16T07:10:58;99277.56;;;17.58;79.03
63500;BME280;49654;51.142;14.924;2022-10-16T07:13:26;99278.25;;;17.72;78.69
63500;BME280;49654;51.142;14.924;2022-10-16T07:15:53;99282.88;;;17.76;78.09
63500;BME280;49654;51.142;14.924;2022-10-16T07:18:22;99270.00;;;17.68;78.32
63500;BME280;49654;51.142;14.924;2022-10-16T07:20:52;99276.50;;;17.66;78.30
63500;BME280;49654;51.142;14.924;2022-10-16T07:23:20;99298.25;;;17.73;78.38
63500;BME280;49654;51.142;14.924;2022-10-16T07:25:53;99300.53;;;17.88;77.89
63500;BME280;49654;51.142;14.924;2022-10-16T07:28:20;99297.50;;;17.91;77.63
63500;BME280;49654;51.142;14.924;2022-10-16T07:30:47;99296.31;;;17.87;77.66
63500;BME280;49654;51.142;14.924;2022-10-16T07:33:14;99295.56;;;17.80;77.99
63500;BME280;49654;51.142;14.924;2022-10-16T07:35:49;99284.16;;;17.67;77.94
63500;BME280;49654;51.142;14.924;2022-10-16T07:38:16;99295.19;;;17.76;77.74
63500;BME280;49654;51.142;14.924;2022-10-16T07:40:44;99306.69;;;17.82;77.84
63500;BME280;49654;51.142;14.924;2022-10-16T07:43:12;99306.75;;;17.93;77.57
63500;BME280;49654;51.142;14.924;2022-10-16T07:45:46;99311.50;;;18.03;77.18
63500;BME280;49654;51.142;14.924;2022-10-16T07:48:14;99258.16;;;17.84;76.69
63500;BME280;49654;51.142;14.924;2022-10-16T07:50:42;99311.75;;;18.32;75.33
63500;BME280;49654;51.142;14.924;2022-10-16T07:53:11;99210.97;;;17.77;74.64
63500;BME280;49654;51.142;14.924;2022-10-16T07:55:38;99298.00;;;18.48;74.38
63500;BME280;49654;51.142;14.924;2022-10-16T07:58:06;99312.00;;;18.79;74.30
63500;BME280;49654;51.142;14.924;2022-10-16T08:00:33;99297.75;;;18.68;73.22
63500;BME280;49654;51.142;14.924;2022-10-16T08:03:00;99330.47;;;18.42;75.33
63500;BME280;49654;51.142;14.924;2022-10-16T08:05:28;99326.09;;;18.17;76.18
63500;BME280;49654;51.142;14.924;2022-10-16T08:07:56;99332.44;;;18.28;76.45
63500;BME280;49654;51.142;14.924;2022-10-16T08:10:26;99328.84;;;18.41;75.35
63500;BME280;49654;51.142;14.924;2022-10-16T08:12:54;99331.00;;;18.62;74.78
63500;BME280;49654;51.142;14.924;2022-10-16T08:15:21;99328.63;;;18.91;74.23
63500;BME280;49654;51.142;14.924;2022-10-16T08:17:54;99322.84;;;19.12;72.49
63500;BME280;49654;51.142;14.924;2022-10-16T08:20:22;99322.06;;;19.23;71.98
63500;BME280;49654;51.142;14.924;2022-10-16T08:22:49;99346.84;;;19.69;70.28
63500;BME280;49654;51.142;14.924;2022-10-16T08:25:16;99336.44;;;19.63;69.86
63500;BME280;49654;51.142;14.924;2022-10-16T08:27:44;99340.72;;;19.34;70.64
63500;BME280;49654;51.142;14.924;2022-10-16T08:30:12;99348.13;;;19.13;71.24
63500;BME280;49654;51.142;14.924;2022-10-16T08:32:40;99354.50;;;19.06;71.80
63500;BME280;49654;51.142;14.924;2022-10-16T08:35:08;99353.88;;;19.22;71.97
63500;BME280;49654;51.142;14.924;2022-10-16T08:37:36;99346.28;;;19.02;72.40
63500;BME280;49654;51.142;14.924;2022-10-16T08:40:05;99361.28;;;19.01;72.77
63500;BME280;49654;51.142;14.924;2022-10-16T08:42:43;99357.97;;;19.06;72.36
63500;BME280;49654;51.142;14.924;2022-10-16T08:45:46;99358.13;;;19.23;71.74
63500;BME280;49654;51.142;14.924;2022-10-16T08:48:20;99358.00;;;19.30;71.53
63500;BME280;49654;51.142;14.924;2022-10-16T08:50:52;99355.50;;;19.35;70.47
63500;BME280;49654;51.142;14.924;2022-10-16T08:53:23;99363.91;;;19.01;72.01
63500;BME280;49654;51.142;14.924;2022-10-16T08:55:52;99369.25;;;19.37;71.37
63500;BME280;49654;51.142;14.924;2022-10-16T08:58:21;99363.72;;;19.26;71.47
63500;BME280;49654;51.142;14.924;2022-10-16T09:00:54;99366.63;;;19.37;71.22
63500;BME280;49654;51.142;14.924;2022-10-16T09:03:31;99328.69;;;19.26;70.39
63500;BME280;49654;51.142;14.924;2022-10-16T09:06:18;99359.09;;;19.64;70.76
63500;BME280;49654;51.142;14.924;2022-10-16T09:08:59;99368.97;;;19.68;69.14
63500;BME280;49654;51.142;14.924;2022-10-16T09:11:36;99343.41;;;19.81;69.45
63500;BME280;49654;51.142;14.924;2022-10-16T09:14:17;99317.25;;;19.44;69.12
63500;BME280;49654;51.142;14.924;2022-10-16T09:16:53;99362.31;;;19.77;68.93
63500;BME280;49654;51.142;14.924;2022-10-16T09:19:25;99356.81;;;19.79;69.58
63500;BME280;49654;51.142;14.924;2022-10-16T09:21:59;99361.75;;;19.75;69.99
63500;BME280;49654;51.142;14.924;2022-10-16T09:24:29;99358.66;;;19.67;69.81
63500;BME280;49654;51.142;14.924;2022-10-16T09:26:56;99313.16;;;19.36;70.46
63500;BME280;49654;51.142;14.924;2022-10-16T09:29:24;99361.84;;;19.69;69.32
63500;BME280;49654;51.142;14.924;2022-10-16T09:31:55;99350.66;;;19.62;69.15
63500;BME280;49654;51.142;14.924;2022-10-16T09:34:36;99305.34;;;19.30;69.47
63500;BME280;49654;51.142;14.924;2022-10-16T09:37:09;99320.69;;;19.21;69.59
63500;BME280;49654;51.142;14.924;2022-10-16T09:39:44;99378.06;;;19.42;70.51
63500;BME280;49654;51.142;14.924;2022-10-16T09:42:14;99369.25;;;19.37;70.98
63500;BME280;49654;51.142;14.924;2022-10-16T09:44:42;99361.00;;;19.57;69.92
63500;BME280;49654;51.142;14.924;2022-10-16T09:47:16;99357.84;;;19.66;69.93
63500;BME280;49654;51.142;14.924;2022-10-16T09:49:51;99317.84;;;19.58;69.51
63500;BME280;49654;51.142;14.924;2022-10-16T09:52:18;99380.88;;;20.06;68.05
63500;BME280;49654;51.142;14.924;2022-10-16T09:54:51;99380.88;;;19.94;68.72
63500;BME280;49654;51.142;14.924;2022-10-16T09:57:18;99276.75;;;19.68;67.80
63500;BME280;49654;51.142;14.924;2022-10-16T09:59:47;99356.19;;;20.12;67.92
63500;BME280;49654;51.142;14.924;2022-10-16T10:02:17;99375.06;;;20.44;66.88
63500;BME280;49654;51.142;14.924;2022-10-16T10:04:50;99385.34;;;20.69;66.93
63500;BME280;49654;51.142;14.924;2022-10-16T10:07:24;99364.09;;;20.76;66.22
63500;BME280;49654;51.142;14.924;2022-10-16T10:09:52;99342.38;;;20.57;65.74
63500;BME280;49654;51.142;14.924;2022-10-16T10:12:21;99372.75;;;20.60;66.74
63500;BME280;49654;51.142;14.924;2022-10-16T10:14:51;99381.47;;;20.89;66.41
63500;BME280;49654;51.142;14.924;2022-10-16T10:17:21;99367.91;;;20.97;66.56
63500;BME280;49654;51.142;14.924;2022-10-16T10:19:52;99373.38;;;20.79;66.79
63500;BME280;49654;51.142;14.924;2022-10-16T10:22:26;99308.38;;;20.32;66.96
63500;BME280;49654;51.142;14.924;2022-10-16T10:24:55;99364.88;;;20.76;66.56
63500;BME280;49654;51.142;14.924;2022-10-16T10:27:28;99327.00;;;20.54;65.71
63500;BME280;49654;51.142;14.924;2022-10-16T10:30:02;99392.09;;;21.22;65.29
63500;BME280;49654;51.142;14.924;2022-10-16T10:32:40;99341.72;;;21.41;64.87
63500;BME280;49654;51.142;14.924;2022-10-16T10:35:16;99396.16;;;21.75;63.07
63500;BME280;49654;51.142;14.924;2022-10-16T10:37:54;99351.66;;;21.34;62.75
63500;BME280;49654;51.142;14.924;2022-10-16T10:40:34;99373.63;;;21.22;63.23
63500;BME280;49654;51.142;14.924;2022-10-16T10:43:17;99389.00;;;21.25;64.27
63500;BME280;49654;51.142;14.924;2022-10-16T10:45:47;99394.25;;;21.09;64.26
63500;BME280;49654;51.142;14.924;2022-10-16T10:48:38;99398.09;;;21.18;64.27
63500;BME280;49654;51.142;14.924;2022-10-16T10:51:17;99398.22;;;20.94;64.96
63500;BME280;49654;51.142;14.924;2022-10-16T10:53:51;99399.16;;;20.88;66.03
63500;BME280;49654;51.142;14.924;2022-10-16T10:56:43;99395.53;;;20.78;64.84
63500;BME280;49654;51.142;14.924;2022-10-16T10:59:28;99404.72;;;21.04;64.59
63500;BME280;49654;51.142;14.924;2022-10-16T11:02:00;99388.63;;;21.05;64.59
63500;BME280;49654;51.142;14.924;2022-10-16T11:05:00;99373.88;;;21.21;63.86
63500;BME280;49654;51.142;14.924;2022-10-16T11:07:37;99408.41;;;21.19;64.55
63500;BME280;49654;51.142;14.924;2022-10-16T11:10:13;99377.56;;;20.91;64.94
63500;BME280;49654;51.142;14.924;2022-10-16T11:12:44;99370.03;;;20.83;65.10
63500;BME280;49654;51.142;14.924;2022-10-16T11:15:14;99408.16;;;21.04;65.06
63500;BME280;49654;51.142;14.924;2022-10-16T11:17:45;99407.00;;;21.29;64.71
63500;BME280;49654;51.142;14.924;2022-10-16T11:20:18;99334.97;;;20.99;64.09
63500;BME280;49654;51.142;14.924;2022-10-16T11:22:48;99412.09;;;21.64;64.39
63500;BME280;49654;51.142;14.924;2022-10-16T11:25:21;99402.41;;;21.53;63.09
63500;BME280;49654;51.142;14.924;2022-10-16T11:27:52;99386.69;;;21.29;63.90
63500;BME280;49654;51.142;14.924;2022-10-16T11:30:24;99385.72;;;21.86;63.40
63500;BME280;49654;51.142;14.924;2022-10-16T11:33:00;99338.56;;;22.16;60.71
63500;BME280;49654;51.142;14.924;2022-10-16T11:35:39;99416.72;;;22.90;59.79
63500;BME280;49654;51.142;14.924;2022-10-16T11:38:15;99363.69;;;22.36;59.56
63500;BME280;49654;51.142;14.924;2022-10-16T11:40:47;99403.53;;;22.73;59.03
63500;BME280;49654;51.142;14.924;2022-10-16T11:43:21;99418.25;;;22.42;60.67
63500;BME280;49654;51.142;14.924;2022-10-16T11:45:51;99415.25;;;22.82;60.39
63500;BME280;49654;51.142;14.924;2022-10-16T11:48:24;99389.63;;;22.83;58.66
63500;BME280;49654;51.142;14.924;2022-10-16T11:50:58;99363.78;;;22.46;58.38
63500;BME280;49654;51.142;14.924;2022-10-16T11:53:38;99373.25;;;22.42;59.75
63500;BME280;49654;51.142;14.924;2022-10-16T11:56:08;99412.63;;;22.82;58.92
63500;BME280;49654;51.142;14.924;2022-10-16T11:58:43;99425.94;;;23.68;58.37
63500;BME280;49654;51.142;14.924;2022-10-16T12:01:18;99371.25;;;23.62;55.67
63500;BME280;49654;51.142;14.924;2022-10-16T12:03:59;99431.03;;;23.48;56.52
63500;BME280;49654;51.142;14.924;2022-10-16T12:06:35;99343.72;;;22.50;57.57
63500;BME280;49654;51.142;14.924;2022-10-16T12:09:04;99433.59;;;23.38;56.98
63500;BME280;49654;51.142;14.924;2022-10-16T12:11:35;99431.72;;;23.06;57.29
63500;BME280;49654;51.142;14.924;2022-10-16T12:14:36;99426.31;;;22.96;57.71
63500;BME280;49654;51.142;14.924;2022-10-16T12:17:23;99364.06;;;24.00;54.29
63500;BME280;49654;51.142;14.924;2022-10-16T12:19:58;99345.06;;;24.23;52.80
63500;BME280;49654;51.142;14.924;2022-10-16T12:22:29;99362.59;;;24.24;52.85
63500;BME280;49654;51.142;14.924;2022-10-16T12:24:58;99406.41;;;24.32;53.23
63500;BME280;49654;51.142;14.924;2022-10-16T12:27:28;99364.94;;;24.99;51.54
63500;BME280;49654;51.142;14.924;2022-10-16T12:29:57;99404.81;;;25.04;51.54
63500;BME280;49654;51.142;14.924;2022-10-16T12:32:29;99418.31;;;26.25;49.88
63500;BME280;49654;51.142;14.924;2022-10-16T12:34:58;99399.28;;;26.62;47.79
63500;BME280;49654;51.142;14.924;2022-10-16T12:37:29;99307.31;;;25.45;49.40
63500;BME280;49654;51.142;14.924;2022-10-16T12:39:59;99419.75;;;25.41;50.73
63500;BME280;49654;51.142;14.924;2022-10-16T12:42:37;99427.06;;;24.72;51.48
63500;BME280;49654;51.142;14.924;2022-10-16T12:45:23;99404.13;;;23.98;53.94
63500;BME280;49654;51.142;14.924;2022-10-16T12:47:52;99398.25;;;23.91;54.12
63500;BME280;49654;51.142;14.924;2022-10-16T12:50:33;99416.66;;;24.61;53.15
63500;BME280;49654;51.142;14.924;2022-10-16T13:24:51;99320.75;;;27.57;42.95
63500;BME280;49654;51.142;14.924;2022-10-16T13:27:48;99389.56;;;27.60;43.05
63500;BME280;49654;51.142;14.924;2022-10-16T13:30:21;99387.00;;;27.50;42.95
63500;BME280;49654;51.142;14.924;2022-10-16T13:32:54;99347.16;;;28.31;41.44
63500;BME280;49654;51.142;14.924;2022-10-16T13:35:25;99430.47;;;28.33;41.75
63500;BME280;49654;51.142;14.924;2022-10-16T13:38:03;99383.66;;;29.35;39.20
63500;BME280;49654;51.142;14.924;2022-10-16T13:40:30;99437.44;;;30.81;36.19